sensor_id;sensor_type;location;lat;lon;timestamp;P1;durP1;ratioP1;P2;durP2;ratioP2
32297;SDS011;18782;48.984;8.548;2022-09-27T00:01:30;0.60;;;0.20;;
32297;SDS011;18782;48.984;8.548;2022-09-27T00:03:58;1.08;;;0.20;;
32297;SDS011;18782;48.984;8.548;2022-09-27T00:06:27;2.28;;;0.20;;
32297;SDS011;18782;48.984;8.548;2022-09-27T00:08:57;0.75;;;0.20;;
32297;SDS011;18782;48.984;8.548;2022-09-27T00:11:26;0.88;;;0.20;;
32297;SDS011;18782;48.984;8.548;2022-09-27T00:13:57;0.73;;;0.20;;
32297;SDS011;18782;48.984;8.548;2022-09-27T00:16:27;0.20;;;0.10;;
32297;SDS011;18782;48.984;8.548;2022-09-27T00:18:57;1.20;;;0.17;;
32297;SDS011;18782;48.984;8.548;2022-09-27T00:21:26;0.30;;;0.10;;
32297;SDS011;18782;48.984;8.548;2022-09-27T00:23:55;0.80;;;0.10;;
32297;SDS011;18782;48.984;8.548;2022-09-27T00:26:24;1.00;;;0.20;;
32297;SDS011;18782;48.984;8.548;2022-09-27T00:28:52;2.95;;;0.47;;
32297;SDS011;18782;48.984;8.548;2022-09-27T00:31:21;1.90;;;0.95;;
32297;SDS011;18782;48.984;8.548;2022-09-27T00:33:52;0.50;;;0.30;;
32297;SDS011;18782;48.984;8.548;2022-09-27T00:36:20;1.42;;;0.40;;
32297;SDS011;18782;48.984;8.548;2022-09-27T00:38:49;0.50;;;0.20;;
32297;SDS011;18782;48.984;8.548;2022-09-27T00:41:17;1.27;;;0.60;;
32297;SDS011;18782;48.984;8.548;2022-09-27T00:43:48;0.40;;;0.30;;
32297;SDS011;18782;48.984;8.548;2022-09-27T00:46:18;0.50;;;0.20;;
32297;SDS011;18782;48.984;8.548;2022-09-27T00:48:58;2.13;;;0.30;;
32297;SDS011;18782;48.984;8.548;2022-09-27T00:51:29;1.20;;;0.30;;
32297;SDS011;18782;48.984;8.548;2022-09-27T00:54:00;2.83;;;0.40;;
32297;SDS011;18782;48.984;8.548;2022-09-27T00:56:29;0.73;;;0.30;;
32297;SDS011;18782;48.984;8.548;2022-09-27T00:58:59;2.13;;;0.50;;
32297;SDS011;18782;48.984;8.548;2022-09-27T01:01:33;1.58;;;0.40;;
32297;SDS011;18782;48.984;8.548;2022-09-27T01:04:05;1.40;;;0.30;;
32297;SDS011;18782;48.984;8.548;2022-09-27T01:06:34;2.08;;;0.55;;
32297;SDS011;18782;48.984;8.548;2022-09-27T01:09:02;1.90;;;0.45;;
32297;SDS011;18782;48.984;8.548;2022-09-27T01:11:34;2.22;;;0.40;;
32297;SDS011;18782;48.984;8.548;2022-09-27T01:17:06;0.93;;;0.25;;
32297;SDS011;18782;48.984;8.548;2022-09-27T01:20:10;0.65;;;0.30;;
32297;SDS011;18782;48.984;8.548;2022-09-27T01:22:52;2.10;;;0.40;;
32297;SDS011;18782;48.984;8.548;2022-09-27T01:25:37;2.15;;;0.55;;
32297;SDS011;18782;48.984;8.548;2022-09-27T01:28:19;0.77;;;0.40;;
32297;SDS011;18782;48.984;8.548;2022-09-27T01:30:54;1.80;;;0.50;;
32297;SDS011;18782;48.984;8.548;2022-09-27T01:33:37;1.35;;;0.43;;
32297;SDS011;18782;48.984;8.548;2022-09-27T01:36:15;0.80;;;0.38;;
32297;SDS011;18782;48.984;8.548;2022-09-27T01:38:51;0.65;;;0.40;;
32297;SDS011;18782;48.984;8.548;2022-09-27T01:41:41;0.80;;;0.40;;
32297;SDS011;18782;48.984;8.548;2022-09-27T01:44:28;0.63;;;0.40;;
32297;SDS011;18782;48.984;8.548;2022-09-27T01:47:09;2.03;;;0.43;;
32297;SDS011;18782;48.984;8.548;2022-09-27T01:49:52;1.45;;;0.50;;
32297;SDS011;18782;48.984;8.548;2022-09-27T01:52:24;0.57;;;0.30;;
32297;SDS011;18782;48.984;8.548;2022-09-27T01:54:59;1.55;;;0.40;;
32297;SDS011;18782;48.984;8.548;2022-09-27T01:57:49;1.73;;;0.40;;
32297;SDS011;18782;48.984;8.548;2022-09-27T02:00:24;3.30;;;0.47;;
32297;SDS011;18782;48.984;8.548;2022-09-27T02:02:56;3.00;;;0.50;;
32297;SDS011;18782;48.984;8.548;2022-09-27T02:05:30;3.10;;;0.30;;
32297;SDS011;18782;48.984;8.548;2022-09-27T02:08:18;4.43;;;0.50;;
32297;SDS011;18782;48.984;8.548;2022-09-27T02:10:50;1.90;;;0.45;;
32297;SDS011;18782;48.984;8.548;2022-09-27T02:13:25;3.03;;;0.47;;
32297;SDS011;18782;48.984;8.548;2022-09-27T02:16:20;5.82;;;1.17;;
32297;SDS011;18782;48.984;8.548;2022-09-27T02:19:01;4.57;;;0.80;;
32297;SDS011;18782;48.984;8.548;2022-09-27T02:21:39;1.75;;;0.52;;
32297;SDS011;18782;48.984;8.548;2022-09-27T02:24:12;2.42;;;0.57;;
32297;SDS011;18782;48.984;8.548;2022-09-27T02:26:47;2.50;;;0.68;;
32297;SDS011;18782;48.984;8.548;2022-09-27T02:29:23;1.92;;;0.40;;
32297;SDS011;18782;48.984;8.548;2022-09-27T02:32:00;2.38;;;0.57;;
32297;SDS011;18782;48.984;8.548;2022-09-27T02:34:30;3.70;;;0.73;;
32297;SDS011;18782;48.984;8.548;2022-09-27T02:37:02;4.28;;;0.70;;
32297;SDS011;18782;48.984;8.548;2022-09-27T02:39:30;1.98;;;0.70;;
32297;SDS011;18782;48.984;8.548;2022-09-27T02:42:02;4.90;;;1.15;;
32297;SDS011;18782;48.984;8.548;2022-09-27T02:44:32;3.42;;;0.70;;
32297;SDS011;18782;48.984;8.548;2022-09-27T02:47:07;1.85;;;0.75;;
32297;SDS011;18782;48.984;8.548;2022-09-27T02:49:51;1.55;;;0.63;;
32297;SDS011;18782;48.984;8.548;2022-09-27T02:52:56;5.22;;;0.80;;
32297;SDS011;18782;48.984;8.548;2022-09-27T02:55:40;4.53;;;0.73;;
32297;SDS011;18782;48.984;8.548;2022-09-27T02:58:44;4.82;;;1.10;;
32297;SDS011;18782;48.984;8.548;2022-09-27T03:01:40;4.80;;;0.90;;
32297;SDS011;18782;48.984;8.548;2022-09-27T03:04:32;5.65;;;1.20;;
32297;SDS011;18782;48.984;8.548;2022-09-27T03:07:05;5.68;;;0.82;;
32297;SDS011;18782;48.984;8.548;2022-09-27T03:09:39;4.35;;;1.10;;
32297;SDS011;18782;48.984;8.548;2022-09-27T03:12:09;4.47;;;1.20;;
32297;SDS011;18782;48.984;8.548;2022-09-27T03:14:38;6.45;;;1.40;;
32297;SDS011;18782;48.984;8.548;2022-09-27T03:17:25;5.30;;;1.17;;
32297;SDS011;18782;48.984;8.548;2022-09-27T03:20:12;4.82;;;1.05;;
32297;SDS011;18782;48.984;8.548;2022-09-27T03:22:54;4.43;;;1.20;;
32297;SDS011;18782;48.984;8.548;2022-09-27T03:25:22;5.03;;;1.30;;
32297;SDS011;18782;48.984;8.548;2022-09-27T03:27:50;3.60;;;1.00;;
32297;SDS011;18782;48.984;8.548;2022-09-27T03:30:17;4.80;;;0.93;;
32297;SDS011;18782;48.984;8.548;2022-09-27T03:32:46;5.18;;;1.20;;
32297;SDS011;18782;48.984;8.548;2022-09-27T03:35:32;4.57;;;0.95;;
32297;SDS011;18782;48.984;8.548;2022-09-27T03:38:01;5.13;;;1.13;;
32297;SDS011;18782;48.984;8.548;2022-09-27T03:40:29;7.63;;;1.48;;
32297;SDS011;18782;48.984;8.548;2022-09-27T03:42:57;8.00;;;1.45;;
32297;SDS011;18782;48.984;8.548;2022-09-27T03:45:25;6.60;;;1.35;;
32297;SDS011;18782;48.984;8.548;2022-09-27T03:47:55;8.15;;;2.17;;
32297;SDS011;18782;48.984;8.548;2022-09-27T03:50:23;7.50;;;1.50;;
32297;SDS011;18782;48.984;8.548;2022-09-27T03:52:51;4.80;;;1.55;;
32297;SDS011;18782;48.984;8.548;2022-09-27T03:55:21;7.97;;;1.40;;
32297;SDS011;18782;48.984;8.548;2022-09-27T03:57:49;9.18;;;1.73;;
32297;SDS011;18782;48.984;8.548;2022-09-27T04:00:18;9.93;;;1.63;;
32297;SDS011;18782;48.984;8.548;2022-09-27T04:02:46;7.63;;;1.77;;
32297;SDS011;18782;48.984;8.548;2022-09-27T04:05:34;3.63;;;1.20;;
32297;SDS011;18782;48.984;8.548;2022-09-27T04:08:05;8.20;;;1.60;;
32297;SDS011;18782;48.984;8.548;2022-09-27T04:10:34;4.65;;;1.27;;
32297;SDS011;18782;48.984;8.548;2022-09-27T04:13:02;4.40;;;1.15;;
32297;SDS011;18782;48.984;8.548;2022-09-27T04:15:36;7.35;;;1.40;;
32297;SDS011;18782;48.984;8.548;2022-09-27T04:18:23;4.82;;;1.42;;
32297;SDS011;18782;48.984;8.548;2022-09-27T04:20:56;5.20;;;1.90;;
32297;SDS011;18782;48.984;8.548;2022-09-27T04:23:24;6.38;;;1.50;;
32297;SDS011;18782;48.984;8.548;2022-09-27T04:25:57;7.88;;;1.45;;
32297;SDS011;18782;48.984;8.548;2022-09-27T04:28:47;11.55;;;3.92;;
32297;SDS011;18782;48.984;8.548;2022-09-27T04:31:20;3.15;;;1.40;;
32297;SDS011;18782;48.984;8.548;2022-09-27T04:34:19;6.03;;;1.30;;
32297;SDS011;18782;48.984;8.548;2022-09-27T04:37:12;2.70;;;0.80;;
32297;SDS011;18782;48.984;8.548;2022-09-27T04:39:43;5.93;;;1.10;;
32297;SDS011;18782;48.984;8.548;2022-09-27T04:42:12;1.40;;;0.70;;
32297;SDS011;18782;48.984;8.548;2022-09-27T04:44:40;3.90;;;1.02;;
32297;SDS011;18782;48.984;8.548;2022-09-27T04:47:08;4.38;;;0.80;;
32297;SDS011;18782;48.984;8.548;2022-09-27T04:49:36;4.57;;;0.90;;
32297;SDS011;18782;48.984;8.548;2022-09-27T04:52:04;4.40;;;0.90;;
32297;SDS011;18782;48.984;8.548;2022-09-27T04:54:32;3.80;;;1.05;;
32297;SDS011;18782;48.984;8.548;2022-09-27T04:57:08;2.55;;;0.70;;
32297;SDS011;18782;48.984;8.548;2022-09-27T04:59:39;5.10;;;1.00;;
32297;SDS011;18782;48.984;8.548;2022-09-27T05:02:08;5.95;;;1.60;;
32297;SDS011;18782;48.984;8.548;2022-09-27T05:05:07;4.80;;;0.98;;
32297;SDS011;18782;48.984;8.548;2022-09-27T05:07:38;4.20;;;0.88;;
32297;SDS011;18782;48.984;8.548;2022-09-27T05:10:12;7.13;;;1.25;;
32297;SDS011;18782;48.984;8.548;2022-09-27T05:12:40;4.15;;;0.80;;
32297;SDS011;18782;48.984;8.548;2022-09-27T05:15:12;5.45;;;1.17;;
32297;SDS011;18782;48.984;8.548;2022-09-27T05:17:58;3.13;;;0.80;;
32297;SDS011;18782;48.984;8.548;2022-09-27T05:20:48;4.10;;;1.00;;
32297;SDS011;18782;48.984;8.548;2022-09-27T05:23:25;2.17;;;0.98;;
32297;SDS011;18782;48.984;8.548;2022-09-27T05:25:52;4.47;;;0.85;;
32297;SDS011;18782;48.984;8.548;2022-09-27T05:28:21;2.63;;;0.80;;
32297;SDS011;18782;48.984;8.548;2022-09-27T05:30:51;4.22;;;1.10;;
32297;SDS011;18782;48.984;8.548;2022-09-27T05:33:20;3.03;;;0.80;;
32297;SDS011;18782;48.984;8.548;2022-09-27T05:35:51;3.67;;;0.80;;
32297;SDS011;18782;48.984;8.548;2022-09-27T05:38:22;3.25;;;1.42;;
32297;SDS011;18782;48.984;8.548;2022-09-27T05:40:54;3.53;;;1.17;;
32297;SDS011;18782;48.984;8.548;2022-09-27T05:43:23;4.22;;;0.65;;
32297;SDS011;18782;48.984;8.548;2022-09-27T05:45:52;3.55;;;0.73;;
32297;SDS011;18782;48.984;8.548;2022-09-27T05:48:21;2.55;;;0.60;;
32297;SDS011;18782;48.984;8.548;2022-09-27T05:50:54;4.15;;;1.13;;
32297;SDS011;18782;48.984;8.548;2022-09-27T05:53:22;5.03;;;1.05;;
32297;SDS011;18782;48.984;8.548;2022-09-27T05:55:50;3.75;;;0.75;;
32297;SDS011;18782;48.984;8.548;2022-09-27T05:58:26;2.15;;;0.70;;
32297;SDS011;18782;48.984;8.548;2022-09-27T06:01:09;2.85;;;0.60;;
32297;SDS011;18782;48.984;8.548;2022-09-27T06:03:57;1.83;;;0.70;;
32297;SDS011;18782;48.984;8.548;2022-09-27T06:06:51;3.38;;;0.90;;
32297;SDS011;18782;48.984;8.548;2022-09-27T06:09:19;3.47;;;0.90;;
32297;SDS011;18782;48.984;8.548;2022-09-27T06:11:47;2.45;;;0.70;;
32297;SDS011;18782;48.984;8.548;2022-09-27T06:14:17;1.65;;;0.63;;
32297;SDS011;18782;48.984;8.548;2022-09-27T06:16:58;3.25;;;0.60;;
32297;SDS011;18782;48.984;8.548;2022-09-27T06:19:32;1.88;;;0.50;;
32297;SDS011;18782;48.984;8.548;2022-09-27T06:22:00;4.63;;;0.52;;
32297;SDS011;18782;48.984;8.548;2022-09-27T06:24:37;1.42;;;0.47;;
32297;SDS011;18782;48.984;8.548;2022-09-27T06:27:13;1.17;;;0.40;;
32297;SDS011;18782;48.984;8.548;2022-09-27T06:29:48;2.70;;;0.60;;
32297;SDS011;18782;48.984;8.548;2022-09-27T06:32:31;3.38;;;0.50;;
32297;SDS011;18782;48.984;8.548;2022-09-27T06:35:14;1.27;;;0.28;;
32297;SDS011;18782;48.984;8.548;2022-09-27T06:37:42;1.23;;;0.32;;
32297;SDS011;18782;48.984;8.548;2022-09-27T06:40:10;2.65;;;0.60;;
32297;SDS011;18782;48.984;8.548;2022-09-27T06:43:07;2.58;;;0.43;;
32297;SDS011;18782;48.984;8.548;2022-09-27T06:46:02;1.52;;;0.20;;
32297;SDS011;18782;48.984;8.548;2022-09-27T06:49:05;3.30;;;0.50;;
32297;SDS011;18782;48.984;8.548;2022-09-27T06:51:32;1.42;;;0.50;;
32297;SDS011;18782;48.984;8.548;2022-09-27T06:54:01;2.17;;;1.17;;
32297;SDS011;18782;48.984;8.548;2022-09-27T06:56:29;1.48;;;0.32;;
32297;SDS011;18782;48.984;8.548;2022-09-27T06:58:57;2.40;;;0.50;;
32297;SDS011;18782;48.984;8.548;2022-09-27T07:02:02;2.40;;;0.50;;
32297;SDS011;18782;48.984;8.548;2022-09-27T07:05:03;1.05;;;0.30;;
32297;SDS011;18782;48.984;8.548;2022-09-27T07:08:07;1.65;;;0.40;;
32297;SDS011;18782;48.984;8.548;2022-09-27T07:10:38;2.25;;;0.47;;
32297;SDS011;18782;48.984;8.548;2022-09-27T07:13:07;2.05;;;0.32;;
32297;SDS011;18782;48.984;8.548;2022-09-27T07:15:36;2.33;;;0.40;;
32297;SDS011;18782;48.984;8.548;2022-09-27T07:18:10;1.00;;;0.32;;
32297;SDS011;18782;48.984;8.548;2022-09-27T07:20:39;1.92;;;0.40;;
32297;SDS011;18782;48.984;8.548;2022-09-27T07:23:08;2.10;;;0.40;;
32297;SDS011;18782;48.984;8.548;2022-09-27T07:25:38;1.27;;;0.40;;
32297;SDS011;18782;48.984;8.548;2022-09-27T07:28:06;2.40;;;0.30;;
32297;SDS011;18782;48.984;8.548;2022-09-27T07:30:38;2.55;;;0.30;;
32297;SDS011;18782;48.984;8.548;2022-09-27T07:33:07;2.85;;;0.68;;
32297;SDS011;18782;48.984;8.548;2022-09-27T07:35:37;1.63;;;0.40;;
32297;SDS011;18782;48.984;8.548;2022-09-27T07:38:08;1.13;;;0.63;;
32297;SDS011;18782;48.984;8.548;2022-09-27T07:40:39;1.38;;;0.50;;
32297;SDS011;18782;48.984;8.548;2022-09-27T07:43:10;1.00;;;0.40;;
32297;SDS011;18782;48.984;8.548;2022-09-27T07:45:39;1.17;;;0.45;;
32297;SDS011;18782;48.984;8.548;2022-09-27T07:48:14;1.70;;;0.50;;
32297;SDS011;18782;48.984;8.548;2022-09-27T07:50:58;3.67;;;0.60;;
32297;SDS011;18782;48.984;8.548;2022-09-27T07:53:44;1.45;;;0.40;;
32297;SDS011;18782;48.984;8.548;2022-09-27T07:56:31;1.63;;;0.40;;
32297;SDS011;18782;48.984;8.548;2022-09-27T07:59:00;1.05;;;0.60;;
32297;SDS011;18782;48.984;8.548;2022-09-27T08:01:28;1.23;;;0.35;;
32297;SDS011;18782;48.984;8.548;2022-09-27T08:03:57;1.48;;;0.50;;
32297;SDS011;18782;48.984;8.548;2022-09-27T08:06:26;1.10;;;0.40;;
32297;SDS011;18782;48.984;8.548;2022-09-27T08:08:54;0.93;;;0.50;;
32297;SDS011;18782;48.984;8.548;2022-09-27T08:11:23;1.30;;;0.40;;
32297;SDS011;18782;48.984;8.548;2022-09-27T08:13:52;3.38;;;0.80;;
32297;SDS011;18782;48.984;8.548;2022-09-27T08:16:27;1.65;;;0.70;;
32297;SDS011;18782;48.984;8.548;2022-09-27T08:19:13;2.60;;;0.50;;
32297;SDS011;18782;48.984;8.548;2022-09-27T08:21:57;2.78;;;0.60;;
32297;SDS011;18782;48.984;8.548;2022-09-27T08:24:50;2.38;;;0.80;;
32297;SDS011;18782;48.984;8.548;2022-09-27T08:27:37;1.80;;;0.57;;
32297;SDS011;18782;48.984;8.548;2022-09-27T08:30:24;1.92;;;0.70;;
32297;SDS011;18782;48.984;8.548;2022-09-27T08:32:54;1.60;;;0.50;;
32297;SDS011;18782;48.984;8.548;2022-09-27T08:35:23;2.95;;;0.50;;
32297;SDS011;18782;48.984;8.548;2022-09-27T08:37:53;3.17;;;0.60;;
32297;SDS011;18782;48.984;8.548;2022-09-27T08:40:22;1.67;;;0.50;;
32297;SDS011;18782;48.984;8.548;2022-09-27T08:42:57;3.17;;;0.70;;
32297;SDS011;18782;48.984;8.548;2022-09-27T08:45:31;8.20;;;3.83;;
32297;SDS011;18782;48.984;8.548;2022-09-27T08:48:03;2.40;;;1.10;;
32297;SDS011;18782;48.984;8.548;2022-09-27T08:50:32;2.97;;;0.80;;
32297;SDS011;18782;48.984;8.548;2022-09-27T08:53:15;2.55;;;1.05;;
32297;SDS011;18782;48.984;8.548;2022-09-27T08:55:48;2.75;;;1.02;;
32297;SDS011;18782;48.984;8.548;2022-09-27T08:58:22;2.40;;;0.70;;
32297;SDS011;18782;48.984;8.548;2022-09-27T09:00:55;2.42;;;0.80;;
32297;SDS011;18782;48.984;8.548;2022-09-27T09:03:29;2.67;;;0.70;;
32297;SDS011;18782;48.984;8.548;2022-09-27T09:06:06;1.40;;;0.60;;
32297;SDS011;18782;48.984;8.548;2022-09-27T09:08:46;4.07;;;0.70;;
32297;SDS011;18782;48.984;8.548;2022-09-27T09:11:24;4.50;;;1.15;;
32297;SDS011;18782;48.984;8.548;2022-09-27T09:14:21;2.70;;;1.00;;
32297;SDS011;18782;48.984;8.548;2022-09-27T09:17:02;4.55;;;1.00;;
32297;SDS011;18782;48.984;8.548;2022-09-27T09:19:59;4.47;;;1.88;;
32297;SDS011;18782;48.984;8.548;2022-09-27T09:23:08;4.30;;;1.00;;
32297;SDS011;18782;48.984;8.548;2022-09-27T09:25:51;3.75;;;1.30;;
32297;SDS011;18782;48.984;8.548;2022-09-27T09:28:30;3.97;;;1.05;;
32297;SDS011;18782;48.984;8.548;2022-09-27T09:31:06;4.10;;;0.93;;
32297;SDS011;18782;48.984;8.548;2022-09-27T09:33:39;3.40;;;1.00;;
32297;SDS011;18782;48.984;8.548;2022-09-27T09:36:16;4.68;;;1.90;;
32297;SDS011;18782;48.984;8.548;2022-09-27T09:38:51;2.03;;;0.90;;
32297;SDS011;18782;48.984;8.548;2022-09-27T09:41:25;2.95;;;0.80;;
32297;SDS011;18782;48.984;8.548;2022-09-27T09:43:57;1.77;;;0.82;;
32297;SDS011;18782;48.984;8.548;2022-09-27T09:46:30;1.83;;;0.75;;
32297;SDS011;18782;48.984;8.548;2022-09-27T09:51:37;5.03;;;0.82;;
32297;SDS011;18782;48.984;8.548;2022-09-27T09:54:12;3.73;;;0.90;;
32297;SDS011;18782;48.984;8.548;2022-09-27T09:56:48;2.35;;;0.60;;
32297;SDS011;18782;48.984;8.548;2022-09-27T09:59:23;3.25;;;0.60;;
32297;SDS011;18782;48.984;8.548;2022-09-27T10:01:57;3.47;;;0.80;;
32297;SDS011;18782;48.984;8.548;2022-09-27T10:04:34;4.90;;;0.70;;
32297;SDS011;18782;48.984;8.548;2022-09-27T10:07:01;3.13;;;0.63;;
32297;SDS011;18782;48.984;8.548;2022-09-27T10:09:33;2.92;;;0.80;;
32297;SDS011;18782;48.984;8.548;2022-09-27T10:12:32;2.17;;;0.55;;
32297;SDS011;18782;48.984;8.548;2022-09-27T10:15:03;3.13;;;0.85;;
32297;SDS011;18782;48.984;8.548;2022-09-27T10:17:33;3.88;;;0.88;;
32297;SDS011;18782;48.984;8.548;2022-09-27T10:20:06;2.08;;;0.63;;
32297;SDS011;18782;48.984;8.548;2022-09-27T10:22:36;1.83;;;0.60;;
32297;SDS011;18782;48.984;8.548;2022-09-27T10:25:27;2.75;;;0.90;;
32297;SDS011;18782;48.984;8.548;2022-09-27T10:28:33;4.85;;;0.98;;
32297;SDS011;18782;48.984;8.548;2022-09-27T10:31:04;4.37;;;0.80;;
32297;SDS011;18782;48.984;8.548;2022-09-27T10:33:50;2.90;;;0.98;;
32297;SDS011;18782;48.984;8.548;2022-09-27T10:36:22;2.42;;;0.90;;
32297;SDS011;18782;48.984;8.548;2022-09-27T10:38:52;2.17;;;0.93;;
32297;SDS011;18782;48.984;8.548;2022-09-27T10:41:43;4.05;;;1.30;;
32297;SDS011;18782;48.984;8.548;2022-09-27T10:44:33;3.38;;;1.30;;
32297;SDS011;18782;48.984;8.548;2022-09-27T10:47:21;4.75;;;1.40;;
32297;SDS011;18782;48.984;8.548;2022-09-27T10:50:15;3.03;;;1.23;;
32297;SDS011;18782;48.984;8.548;2022-09-27T10:53:19;3.53;;;1.00;;
32297;SDS011;18782;48.984;8.548;2022-09-27T10:56:02;1.67;;;0.93;;
32297;SDS011;18782;48.984;8.548;2022-09-27T10:58:32;2.22;;;0.63;;
32297;SDS011;18782;48.984;8.548;2022-09-27T11:01:05;2.20;;;1.00;;
32297;SDS011;18782;48.984;8.548;2022-09-27T11:03:57;2.78;;;0.57;;
32297;SDS011;18782;48.984;8.548;2022-09-27T11:06:30;1.85;;;0.52;;
32297;SDS011;18782;48.984;8.548;2022-09-27T11:09:15;1.73;;;0.60;;
32297;SDS011;18782;48.984;8.548;2022-09-27T11:11:50;3.40;;;1.23;;
32297;SDS011;18782;48.984;8.548;2022-09-27T11:14:33;1.70;;;0.70;;
32297;SDS011;18782;48.984;8.548;2022-09-27T11:19:51;0.45;;;0.20;;
32297;SDS011;18782;48.984;8.548;2022-09-27T11:22:29;2.27;;;1.07;;
32297;SDS011;18782;48.984;8.548;2022-09-27T11:25:25;0.82;;;0.10;;
32297;SDS011;18782;48.984;8.548;2022-09-27T11:28:02;0.10;;;0.10;;
32297;SDS011;18782;48.984;8.548;2022-09-27T11:30:39;0.55;;;0.20;;
32297;SDS011;18782;48.984;8.548;2022-09-27T11:36:36;0.90;;;0.28;;
32297;SDS011;18782;48.984;8.548;2022-09-27T11:39:22;1.50;;;0.50;;
32297;SDS011;18782;48.984;8.548;2022-09-27T11:42:00;1.73;;;0.20;;
32297;SDS011;18782;48.984;8.548;2022-09-27T11:44:52;2.20;;;0.20;;
32297;SDS011;18782;48.984;8.548;2022-09-27T11:47:50;1.45;;;0.20;;
32297;SDS011;18782;48.984;8.548;2022-09-27T11:50:46;0.80;;;0.28;;
32297;SDS011;18782;48.984;8.548;2022-09-27T11:53:38;1.80;;;0.20;;
32297;SDS011;18782;48.984;8.548;2022-09-27T11:56:22;0.57;;;0.20;;
32297;SDS011;18782;48.984;8.548;2022-09-27T11:59:06;1.50;;;0.38;;
32297;SDS011;18782;48.984;8.548;2022-09-27T12:01:53;1.40;;;0.40;;
32297;SDS011;18782;48.984;8.548;2022-09-27T12:07:25;2.78;;;0.30;;
32297;SDS011;18782;48.984;8.548;2022-09-27T12:10:03;1.13;;;0.20;;
32297;SDS011;18782;48.984;8.548;2022-09-27T12:12:35;1.38;;;0.40;;
32297;SDS011;18782;48.984;8.548;2022-09-27T12:15:11;1.20;;;0.20;;
32297;SDS011;18782;48.984;8.548;2022-09-27T12:17:43;0.82;;;0.40;;
32297;SDS011;18782;48.984;8.548;2022-09-27T12:20:15;0.77;;;0.20;;
32297;SDS011;18782;48.984;8.548;2022-09-27T12:22:50;2.03;;;0.50;;
32297;SDS011;18782;48.984;8.548;2022-09-27T12:25:56;1.10;;;0.30;;
32297;SDS011;18782;48.984;8.548;2022-09-27T12:28:30;1.95;;;0.40;;
32297;SDS011;18782;48.984;8.548;2022-09-27T12:31:03;0.83;;;0.30;;
32297;SDS011;18782;48.984;8.548;2022-09-27T12:33:57;2.63;;;0.40;;
32297;SDS011;18782;48.984;8.548;2022-09-27T12:36:31;0.85;;;0.30;;
32297;SDS011;18782;48.984;8.548;2022-09-27T12:39:05;1.45;;;0.60;;
32297;SDS011;18782;48.984;8.548;2022-09-27T12:41:46;2.55;;;0.70;;
32297;SDS011;18782;48.984;8.548;2022-09-27T12:44:31;0.70;;;0.30;;
32297;SDS011;18782;48.984;8.548;2022-09-27T12:47:06;1.25;;;0.30;;
32297;SDS011;18782;48.984;8.548;2022-09-27T12:49:42;0.47;;;0.20;;
32297;SDS011;18782;48.984;8.548;2022-09-27T12:52:27;1.15;;;0.20;;
32297;SDS011;18782;48.984;8.548;2022-09-27T12:55:04;1.58;;;0.30;;
32297;SDS011;18782;48.984;8.548;2022-09-27T12:57:46;1.98;;;0.28;;
32297;SDS011;18782;48.984;8.548;2022-09-27T13:00:28;0.73;;;0.43;;
32297;SDS011;18782;48.984;8.548;2022-09-27T13:03:08;1.40;;;0.40;;
32297;SDS011;18782;48.984;8.548;2022-09-27T13:06:10;1.48;;;0.30;;
32297;SDS011;18782;48.984;8.548;2022-09-27T13:08:55;0.88;;;0.30;;
32297;SDS011;18782;48.984;8.548;2022-09-27T13:11:37;0.50;;;0.30;;
32297;SDS011;18782;48.984;8.548;2022-09-27T13:14:15;1.80;;;0.60;;
32297;SDS011;18782;48.984;8.548;2022-09-27T13:16:47;2.42;;;0.77;;
32297;SDS011;18782;48.984;8.548;2022-09-27T13:22:06;2.30;;;0.60;;
32297;SDS011;18782;48.984;8.548;2022-09-27T13:24:53;1.38;;;0.40;;
32297;SDS011;18782;48.984;8.548;2022-09-27T13:27:41;2.38;;;0.30;;
32297;SDS011;18782;48.984;8.548;2022-09-27T13:36:12;1.40;;;0.30;;
32297;SDS011;18782;48.984;8.548;2022-09-27T13:39:00;1.50;;;0.55;;
32297;SDS011;18782;48.984;8.548;2022-09-27T13:41:51;1.30;;;0.40;;
32297;SDS011;18782;48.984;8.548;2022-09-27T13:44:31;1.63;;;0.40;;
32297;SDS011;18782;48.984;8.548;2022-09-27T13:47:17;2.70;;;0.40;;
32297;SDS011;18782;48.984;8.548;2022-09-27T13:49:57;2.28;;;0.50;;
32297;SDS011;18782;48.984;8.548;2022-09-27T13:52:43;1.20;;;0.30;;
32297;SDS011;18782;48.984;8.548;2022-09-27T13:55:37;0.88;;;0.22;;
32297;SDS011;18782;48.984;8.548;2022-09-27T13:58:36;1.10;;;0.40;;
32297;SDS011;18782;48.984;8.548;2022-09-27T14:01:34;1.35;;;0.40;;
32297;SDS011;18782;48.984;8.548;2022-09-27T14:04:12;3.28;;;0.40;;
32297;SDS011;18782;48.984;8.548;2022-09-27T14:06:46;2.30;;;0.50;;
32297;SDS011;18782;48.984;8.548;2022-09-27T14:09:17;1.45;;;0.60;;
32297;SDS011;18782;48.984;8.548;2022-09-27T14:11:58;2.15;;;0.50;;
32297;SDS011;18782;48.984;8.548;2022-09-27T14:14:29;1.42;;;0.40;;
32297;SDS011;18782;48.984;8.548;2022-09-27T14:16:59;0.52;;;0.30;;
32297;SDS011;18782;48.984;8.548;2022-09-27T14:19:38;2.28;;;0.80;;
32297;SDS011;18782;48.984;8.548;2022-09-27T14:22:11;0.82;;;0.50;;
32297;SDS011;18782;48.984;8.548;2022-09-27T14:24:55;1.50;;;0.70;;
32297;SDS011;18782;48.984;8.548;2022-09-27T14:27:28;3.17;;;0.90;;
32297;SDS011;18782;48.984;8.548;2022-09-27T14:30:12;1.85;;;0.75;;
32297;SDS011;18782;48.984;8.548;2022-09-27T14:32:47;3.08;;;1.52;;
32297;SDS011;18782;48.984;8.548;2022-09-27T14:35:24;0.73;;;0.30;;
32297;SDS011;18782;48.984;8.548;2022-09-27T14:38:12;2.15;;;0.90;;
32297;SDS011;18782;48.984;8.548;2022-09-27T14:41:05;2.35;;;0.52;;
32297;SDS011;18782;48.984;8.548;2022-09-27T14:43:34;4.22;;;1.85;;
32297;SDS011;18782;48.984;8.548;2022-09-27T14:46:03;3.10;;;1.15;;
32297;SDS011;18782;48.984;8.548;2022-09-27T14:48:33;2.20;;;1.30;;
32297;SDS011;18782;48.984;8.548;2022-09-27T14:51:16;2.72;;;1.00;;
32297;SDS011;18782;48.984;8.548;2022-09-27T14:53:47;2.10;;;0.63;;
32297;SDS011;18782;48.984;8.548;2022-09-27T14:56:16;2.90;;;1.02;;
32297;SDS011;18782;48.984;8.548;2022-09-27T14:58:48;2.28;;;1.30;;
32297;SDS011;18782;48.984;8.548;2022-09-27T15:01:21;6.00;;;2.20;;
32297;SDS011;18782;48.984;8.548;2022-09-27T15:03:49;1.08;;;0.60;;
32297;SDS011;18782;48.984;8.548;2022-09-27T15:06:20;1.63;;;0.68;;
32297;SDS011;18782;48.984;8.548;2022-09-27T15:08:49;0.70;;;0.30;;
32297;SDS011;18782;48.984;8.548;2022-09-27T15:11:19;0.90;;;0.35;;
32297;SDS011;18782;48.984;8.548;2022-09-27T15:13:48;1.40;;;0.50;;
32297;SDS011;18782;48.984;8.548;2022-09-27T15:16:19;1.95;;;0.60;;
32297;SDS011;18782;48.984;8.548;2022-09-27T15:18:57;1.17;;;0.50;;
32297;SDS011;18782;48.984;8.548;2022-09-27T15:21:28;1.83;;;0.43;;
32297;SDS011;18782;48.984;8.548;2022-09-27T15:23:57;1.25;;;0.47;;
32297;SDS011;18782;48.984;8.548;2022-09-27T15:26:26;1.40;;;0.43;;
32297;SDS011;18782;48.984;8.548;2022-09-27T15:29:02;6.03;;;1.00;;
32297;SDS011;18782;48.984;8.548;2022-09-27T15:31:31;1.27;;;0.60;;
32297;SDS011;18782;48.984;8.548;2022-09-27T15:34:00;1.40;;;0.60;;
32297;SDS011;18782;48.984;8.548;2022-09-27T15:39:26;3.20;;;1.10;;
32297;SDS011;18782;48.984;8.548;2022-09-27T15:42:02;3.65;;;0.93;;
32297;SDS011;18782;48.984;8.548;2022-09-27T15:44:35;1.77;;;0.73;;
32297;SDS011;18782;48.984;8.548;2022-09-27T15:47:08;3.70;;;0.55;;
32297;SDS011;18782;48.984;8.548;2022-09-27T15:52:59;1.40;;;0.40;;
32297;SDS011;18782;48.984;8.548;2022-09-27T15:55:31;0.93;;;0.50;;
32297;SDS011;18782;48.984;8.548;2022-09-27T15:58:02;1.70;;;0.30;;
32297;SDS011;18782;48.984;8.548;2022-09-27T16:00:33;4.30;;;0.50;;
32297;SDS011;18782;48.984;8.548;2022-09-27T16:03:02;1.85;;;0.38;;
32297;SDS011;18782;48.984;8.548;2022-09-27T16:05:30;1.95;;;0.40;;
32297;SDS011;18782;48.984;8.548;2022-09-27T16:07:59;1.63;;;0.70;;
32297;SDS011;18782;48.984;8.548;2022-09-27T16:10:28;4.60;;;2.00;;
32297;SDS011;18782;48.984;8.548;2022-09-27T16:13:02;3.50;;;1.83;;
32297;SDS011;18782;48.984;8.548;2022-09-27T16:15:30;4.22;;;1.30;;